Time;durP1;ratioP1;P1;durP2;ratioP2;P2;SDS_P1;SDS_P2;PMS_P1;PMS_P2;Temp;Humidity;BMP_temperature;BMP_pressure;BME280_temperature;BME280_humidity;BME280_pressure;Samples;Min_cycle;Max_cycle;Signal;HPM_P1;HPM_P2
2021/10/30 00:01:59;;;;;;;7.63;5.25;;;;;;;10.07;74.22;99886.50;5070664;28;20176;-61
2021/10/30 00:04:25;;;;;;;7.82;5.30;;;;;;;10.11;74.13;99890.31;5056544;28;20060;-60
2021/10/30 00:06:52;;;;;;;10.10;5.57;;;;;;;10.15;73.82;99884.34;5075289;28;20036;-62
2021/10/30 00:09:19;;;;;;;9.68;5.28;;;;;;;10.10;73.90;99889.50;5074804;28;20422;-62
2021/10/30 00:11:44;;;;;;;7.30;4.85;;;;;;;10.13;74.15;99893.56;5075097;28;20482;-61
2021/10/30 00:14:10;;;;;;;9.60;5.47;;;;;;;10.09;74.08;99881.75;5074735;28;20114;-61
2021/10/30 00:16:36;;;;;;;8.45;5.35;;;;;;;10.13;73.69;99888.25;5074823;28;20044;-60
2021/10/30 00:19:02;;;;;;;10.73;5.85;;;;;;;10.14;73.44;99882.72;5075159;28;20044;-61
2021/10/30 00:21:28;;;;;;;9.20;5.50;;;;;;;10.14;73.68;99884.56;5075142;28;20460;-61
2021/10/30 00:23:55;;;;;;;8.88;6.10;;;;;;;10.10;73.65;99883.41;5056439;28;20460;-61
2021/10/30 00:26:21;;;;;;;9.00;6.30;;;;;;;10.07;73.38;99883.84;5074417;28;20436;-60
2021/10/30 00:28:47;;;;;;;8.80;5.10;;;;;;;10.09;73.26;99885.25;5056615;28;20120;-61
2021/10/30 00:31:13;;;;;;;7.57;5.18;;;;;;;10.06;73.21;99882.22;5074677;28;20033;-60
2021/10/30 00:33:39;;;;;;;8.82;5.10;;;;;;;10.08;73.86;99883.59;5056960;28;20521;-62
2021/10/30 00:36:05;;;;;;;10.38;5.38;;;;;;;10.09;73.85;99887.91;5074395;28;20044;-60
2021/10/30 00:38:31;;;;;;;9.27;5.20;;;;;;;10.09;73.38;99887.06;5074740;28;20589;-61
2021/10/30 00:40:57;;;;;;;8.07;5.20;;;;;;;10.10;73.39;99894.00;5074275;28;20123;-61
2021/10/30 00:43:23;;;;;;;7.78;5.25;;;;;;;10.04;73.75;99895.69;5074722;28;20036;-60
2021/10/30 00:45:49;;;;;;;6.97;5.05;;;;;;;10.07;73.75;99900.53;5074251;28;20044;-61
2021/10/30 00:48:15;;;;;;;7.88;5.28;;;;;;;10.03;73.44;99894.09;5074454;28;20033;-61
2021/10/30 00:50:42;;;;;;;9.52;5.38;;;;;;;10.09;73.11;99900.31;5074252;28;20524;-61
2021/10/30 00:53:08;;;;;;;8.20;5.38;;;;;;;10.11;73.35;99908.84;5074442;28;20032;-61
2021/10/30 00:55:35;;;;;;;7.55;4.75;;;;;;;10.09;72.87;99897.66;5074498;28;20044;-60
2021/10/30 00:58:02;;;;;;;7.32;5.20;;;;;;;10.03;72.75;99896.72;5074322;28;20072;-60
2021/10/30 01:00:30;;;;;;;7.45;5.32;;;;;;;10.07;73.65;99891.78;5074363;28;20462;-60
2021/10/30 01:02:56;;;;;;;10.57;5.65;;;;;;;10.09;73.22;99895.84;5074046;28;20102;-60
2021/10/30 01:05:22;;;;;;;8.90;5.13;;;;;;;10.15;72.90;99894.94;5056202;28;20043;-60
2021/10/30 01:07:48;;;;;;;10.13;5.10;;;;;;;10.14;72.97;99895.16;5073466;28;20430;-60
2021/10/30 01:10:14;;;;;;;7.47;5.57;;;;;;;10.11;72.80;99891.09;5073784;28;20041;-59
2021/10/30 01:12:39;;;;;;;8.65;5.38;;;;;;;10.07;72.65;99882.00;5073983;28;20144;-60
2021/10/30 01:15:06;;;;;;;8.15;5.80;;;;;;;10.09;72.52;99879.13;5073801;28;20522;-62
2021/10/30 01:17:35;;;;;;;9.70;5.18;;;;;;;10.13;72.89;99883.75;5073892;28;20119;-60
2021/10/30 01:20:03;;;;;;;8.40;5.55;;;;;;;10.14;72.81;99887.22;5073723;28;20052;-61
2021/10/30 01:22:30;;;;;;;9.38;5.13;;;;;;;10.16;72.32;99882.50;5072498;28;20505;-60
2021/10/30 01:24:56;;;;;;;11.18;6.00;;;;;;;10.19;72.44;99884.72;5073306;28;20045;-60
2021/10/30 01:27:22;;;;;;;8.93;5.28;;;;;;;10.18;72.74;99886.56;5073779;28;20237;-60
2021/10/30 01:29:52;;;;;;;7.95;5.43;;;;;;;10.15;72.71;99886.19;5073438;28;20498;-60
2021/10/30 01:32:19;;;;;;;8.55;5.05;;;;;;;10.16;72.22;99895.75;5073864;28;20047;-61
2021/10/30 01:34:45;;;;;;;8.05;4.97;;;;;;;10.18;72.13;99899.81;5073565;28;20068;-61
2021/10/30 01:37:11;;;;;;;7.32;4.65;;;;;;;10.22;72.41;99900.97;5073440;28;20036;-59
2021/10/30 01:39:37;;;;;;;6.43;4.47;;;;;;;10.29;72.28;99908.06;5073392;28;20048;-60
2021/10/30 01:42:03;;;;;;;6.53;4.40;;;;;;;10.29;72.25;99897.47;5073300;28;20486;-60
2021/10/30 01:44:29;;;;;;;8.52;5.13;;;;;;;10.32;72.18;99907.63;5073081;28;20049;-59
2021/10/30 01:46:57;;;;;;;6.72;4.82;;;;;;;10.31;72.07;99903.34;5073100;28;20093;-61
2021/10/30 01:49:23;;;;;;;6.38;4.40;;;;;;;10.30;71.92;99910.50;5073290;28;20078;-60
2021/10/30 01:51:49;;;;;;;10.18;5.00;;;;;;;10.29;71.81;99908.06;5071746;28;20128;-60
2021/10/30 01:54:15;;;;;;;7.78;4.82;;;;;;;10.33;71.54;99909.25;5072736;28;20044;-62
2021/10/30 01:56:40;;;;;;;6.13;4.47;;;;;;;10.29;71.77;99908.06;5073009;28;20047;-60
2021/10/30 01:59:06;;;;;;;9.20;4.40;;;;;;;10.30;71.97;99913.16;5072888;28;20068;-60
2021/10/30 02:01:33;;;;;;;5.82;4.05;;;;;;;10.29;72.00;99916.00;5055128;28;20043;-60
2021/10/30 02:04:02;;;;;;;5.47;4.07;;;;;;;10.34;71.53;99913.50;5054695;28;20466;-60
2021/10/30 02:06:28;;;;;;;5.07;3.72;;;;;;;10.38;72.13;99920.81;5072766;28;20521;-61
2021/10/30 02:08:54;;;;;;;6.13;4.18;;;;;;;10.34;71.67;99919.59;5072084;28;20135;-62
2021/10/30 02:11:21;;;;;;;7.72;4.18;;;;;;;10.33;71.81;99912.69;5054652;28;20044;-61
2021/10/30 02:13:47;;;;;;;8.63;4.38;;;;;;;10.35;71.52;99908.00;5072655;28;20110;-61
2021/10/30 02:16:13;;;;;;;5.53;3.92;;;;;;;10.35;71.34;99915.94;5072507;28;20036;-59
2021/10/30 02:18:42;;;;;;;5.90;3.75;;;;;;;10.36;71.73;99917.56;5072665;28;20044;-60
2021/10/30 02:21:09;;;;;;;6.65;4.22;;;;;;;10.40;71.71;99918.72;5072742;28;20040;-61
2021/10/30 02:23:34;;;;;;;6.55;4.55;;;;;;;10.23;71.46;99899.13;5072719;28;20040;-60
2021/10/30 02:26:00;;;;;;;8.38;4.35;;;;;;;10.27;72.02;99921.53;5071732;28;20064;-60
2021/10/30 02:28:26;;;;;;;6.68;4.07;;;;;;;10.24;71.96;99929.91;5072643;28;20052;-61
2021/10/30 02:30:52;;;;;;;5.82;4.13;;;;;;;10.24;72.16;99943.97;5072161;28;20043;-59
2021/10/30 02:33:18;;;;;;;6.10;4.50;;;;;;;10.29;71.52;99938.00;5072507;28;20080;-60
2021/10/30 02:35:44;;;;;;;5.07;3.92;;;;;;;10.32;71.34;99945.50;5054661;28;20082;-59
2021/10/30 02:38:09;;;;;;;6.95;3.90;;;;;;;10.36;71.29;99941.41;5072647;28;20047;-60
2021/10/30 02:40:35;;;;;;;5.68;4.20;;;;;;;10.34;71.67;99932.06;5071954;28;20052;-60
2021/10/30 02:43:02;;;;;;;6.28;4.20;;;;;;;10.31;71.46;99935.94;5071120;28;20508;-60
2021/10/30 02:45:28;;;;;;;8.30;4.20;;;;;;;10.35;71.20;99938.97;5072106;28;20079;-60
2021/10/30 02:47:53;;;;;;;6.13;4.10;;;;;;;10.34;71.41;99932.06;5071337;28;20075;-61
2021/10/30 02:50:19;;;;;;;7.47;4.30;;;;;;;10.42;71.46;99939.72;5071371;28;20044;-60
2021/10/30 02:52:45;;;;;;;6.10;3.97;;;;;;;10.46;71.28;99932.91;5072185;28;20119;-60
2021/10/30 02:55:11;;;;;;;7.00;4.38;;;;;;;10.44;71.52;99934.97;5071708;28;20528;-60
2021/10/30 02:57:45;;;;;;;5.80;4.43;;;;;;;10.46;71.16;99938.22;5072251;28;20051;-60
2021/10/30 03:00:13;;;;;;;7.47;3.95;;;;;;;10.50;71.31;99934.13;5071774;28;20041;-61
2021/10/30 03:02:38;;;;;;;7.45;4.35;;;;;;;10.50;71.18;99936.75;5054128;28;20040;-61
2021/10/30 03:05:05;;;;;;;5.40;4.22;;;;;;;10.52;71.11;99939.97;5053980;28;20505;-60
2021/10/30 03:07:33;;;;;;;8.27;5.00;;;;;;;10.54;70.68;99943.22;5071596;28;20036;-61
2021/10/30 03:09:59;;;;;;;6.25;4.35;;;;;;;10.56;70.36;99935.88;5071680;28;20044;-60
2021/10/30 03:12:25;;;;;;;6.32;4.32;;;;;;;10.54;70.42;99937.13;5072001;28;20140;-61
2021/10/30 03:14:51;;;;;;;7.10;4.55;;;;;;;10.55;71.11;99939.53;5071466;28;20524;-60
2021/10/30 03:17:16;;;;;;;7.50;4.90;;;;;;;10.51;71.03;99934.91;5071906;28;20037;-60
2021/10/30 03:19:42;;;;;;;6.38;4.75;;;;;;;10.50;70.78;99931.47;5071546;28;20048;-59
2021/10/30 03:22:09;;;;;;;7.13;4.45;;;;;;;10.52;70.74;99924.06;5053424;28;20041;-60
2021/10/30 03:24:36;;;;;;;8.00;4.50;;;;;;;10.51;70.73;99924.31;5071257;28;20135;-61
2021/10/30 03:27:02;;;;;;;6.15;4.57;;;;;;;10.56;70.84;99929.72;5071487;28;20057;-60
2021/10/30 03:29:27;;;;;;;7.75;4.88;;;;;;;10.56;70.42;99929.72;5071541;28;20040;-61
2021/10/30 03:31:53;;;;;;;6.55;4.82;;;;;;;10.57;70.74;99934.03;5071444;28;20498;-61
2021/10/30 03:34:19;;;;;;;5.43;4.53;;;;;;;10.57;70.78;99934.81;5070975;28;20540;-60
2021/10/30 03:36:45;;;;;;;7.57;4.85;;;;;;;10.60;70.91;99930.91;5070791;28;20048;-60
2021/10/30 03:39:11;;;;;;;10.90;4.43;;;;;;;10.58;70.41;99923.19;5070555;28;20040;-60
2021/10/30 03:41:37;;;;;;;6.47;4.55;;;;;;;10.62;70.87;99924.38;5071384;28;20036;-60
2021/10/30 03:44:03;;;;;;;8.00;4.75;;;;;;;10.64;70.68;99916.97;5052977;28;20055;-61
2021/10/30 03:46:29;;;;;;;7.15;4.38;;;;;;;10.62;70.46;99916.41;5070983;28;20536;-61
2021/10/30 03:48:55;;;;;;;7.95;4.70;;;;;;;10.66;70.79;99911.47;5071316;28;20127;-61
2021/10/30 03:51:21;;;;;;;8.52;4.40;;;;;;;10.66;70.03;99903.50;5071137;28;20052;-61
2021/10/30 03:53:46;;;;;;;7.53;4.85;;;;;;;10.66;70.33;99899.00;5053514;28;20149;-63
2021/10/30 03:56:12;;;;;;;6.60;4.30;;;;;;;10.72;70.21;99896.50;5036338;28;20044;-61
2021/10/30 03:58:38;;;;;;;7.75;4.97;;;;;;;10.68;70.42;99896.16;5071009;28;20504;-62
2021/10/30 04:01:04;;;;;;;5.93;4.50;;;;;;;10.63;70.28;99894.16;5052917;28;20493;-61
2021/10/30 04:03:30;;;;;;;8.63;4.97;;;;;;;10.56;70.75;99882.84;5071627;28;20128;-61
2021/10/30 04:05:55;;;;;;;7.05;4.82;;;;;;;10.61;70.96;99890.91;5070677;28;20044;-60
2021/10/30 04:08:22;;;;;;;7.43;5.03;;;;;;;10.55;71.01;99898.97;5069685;28;20570;-61
2021/10/30 04:10:48;;;;;;;7.78;5.38;;;;;;;10.51;70.77;99901.25;5070868;28;20048;-61
2021/10/30 04:13:14;;;;;;;8.57;5.30;;;;;;;10.48;70.93;99898.25;5070927;28;20484;-60
2021/10/30 04:15:40;;;;;;;8.10;5.40;;;;;;;10.38;71.53;99899.59;5052694;28;20505;-61
2021/10/30 04:18:06;;;;;;;8.23;5.20;;;;;;;10.29;72.22;99913.34;5070987;28;20036;-61
2021/10/30 04:20:32;;;;;;;10.63;5.55;;;;;;;10.13;72.27;99904.94;5070629;28;20047;-60
2021/10/30 04:22:58;;;;;;;6.78;5.25;;;;;;;10.01;73.29;99907.53;5071130;28;20090;-60
2021/10/30 04:25:24;;;;;;;11.75;5.40;;;;;;;9.88;73.38;99905.03;5070588;28;20057;-61
2021/10/30 04:27:50;;;;;;;10.32;6.10;;;;;;;9.81;73.57;99908.78;5052856;28;20094;-60
2021/10/30 04:30:15;;;;;;;9.43;5.32;;;;;;;9.73;74.17;99909.84;5070827;28;20493;-60
2021/10/30 04:32:43;;;;;;;8.75;5.50;;;;;;;9.68;73.97;99915.03;5071220;28;20093;-60
2021/10/30 04:35:10;;;;;;;9.50;5.15;;;;;;;9.62;74.55;99918.50;5070748;28;20056;-60
2021/10/30 04:37:36;;;;;;;9.50;5.18;;;;;;;9.59;75.11;99914.50;5070862;28;20055;-60
2021/10/30 04:40:02;;;;;;;10.88;5.32;;;;;;;9.53;75.16;99924.09;5070725;28;20525;-61
2021/10/30 04:42:29;;;;;;;11.38;5.50;;;;;;;9.47;75.08;99919.69;5052399;28;20235;-60
2021/10/30 04:44:55;;;;;;;8.23;5.45;;;;;;;9.39;74.67;99903.28;5070547;28;20048;-61
2021/10/30 04:47:22;;;;;;;12.35;5.93;;;;;;;9.42;74.84;99903.63;5070511;28;20413;-60
2021/10/30 04:49:49;;;;;;;8.88;5.32;;;;;;;9.39;75.39;99905.91;5038366;28;20047;-58
2021/10/30 04:52:15;;;;;;;8.25;5.93;;;;;;;9.38;75.92;99891.03;5056309;28;20404;-59
2021/10/30 04:54:42;;;;;;;7.78;5.30;;;;;;;9.33;75.62;99899.66;5074223;28;20045;-59
2021/10/30 04:57:08;;;;;;;8.25;5.28;;;;;;;9.31;76.03;99891.91;5073903;28;20132;-61
2021/10/30 04:59:34;;;;;;;7.95;5.25;;;;;;;9.29;75.98;99894.00;5074082;28;20440;-60
2021/10/30 05:02:00;;;;;;;8.18;5.22;;;;;;;9.28;75.86;99897.63;5055991;28;20174;-60
2021/10/30 05:04:26;;;;;;;7.75;5.75;;;;;;;9.28;75.47;99902.13;5069480;28;20524;-58
2021/10/30 05:06:52;;;;;;;8.25;5.13;;;;;;;9.27;75.71;99901.31;5053789;28;20048;-61
2021/10/30 05:09:18;;;;;;;8.68;5.53;;;;;;;9.30;75.62;99902.72;5054028;28;20488;-60
2021/10/30 05:11:44;;;;;;;9.57;5.53;;;;;;;9.29;76.04;99907.22;5035428;28;20045;-60
2021/10/30 05:14:10;;;;;;;11.32;5.97;;;;;;;9.29;76.47;99899.28;5053854;28;20040;-61
2021/10/30 05:16:36;;;;;;;9.20;5.75;;;;;;;9.28;76.25;99904.78;5062712;28;20041;-60
2021/10/30 05:19:02;;;;;;;8.80;5.70;;;;;;;9.23;77.02;99907.25;5056184;28;20409;-61
2021/10/30 05:21:28;;;;;;;10.50;5.80;;;;;;;9.24;76.76;99904.41;5073847;28;20455;-61
2021/10/30 05:23:57;;;;;;;8.70;5.70;;;;;;;9.25;76.64;99910.50;5053627;28;20605;-61
2021/10/30 05:26:26;;;;;;;8.18;5.43;;;;;;;9.27;76.62;99911.91;5052708;28;20053;-60
2021/10/30 05:28:52;;;;;;;8.80;5.80;;;;;;;9.28;77.04;99910.06;5034663;28;20131;-60
2021/10/30 05:31:18;;;;;;;8.57;5.53;;;;;;;9.30;76.69;99913.31;5051687;28;20574;-60
2021/10/30 05:33:44;;;;;;;7.45;5.43;;;;;;;9.33;76.80;99911.03;5052391;28;20052;-59
2021/10/30 05:36:34;;;;;;;8.90;5.30;;;;;;;9.32;76.43;99909.44;5051091;28;20057;-59
2021/10/30 05:39:21;;;;;;;8.13;5.07;;;;;;;9.35;76.53;99910.00;5034526;28;20088;-64
2021/10/30 05:41:47;;;;;;;7.80;5.47;;;;;;;9.39;76.73;99919.16;5052037;28;20037;-60
2021/10/30 05:44:13;;;;;;;7.75;5.05;;;;;;;9.43;76.62;99917.66;5034654;28;20128;-59
2021/10/30 05:46:40;;;;;;;7.57;5.80;;;;;;;9.44;76.33;99917.47;5035742;28;20495;-59
2021/10/30 05:49:06;;;;;;;9.45;5.43;;;;;;;9.47;76.63;99919.69;5052477;28;20111;-61
2021/10/30 05:51:33;;;;;;;7.38;5.57;;;;;;;9.47;76.72;99918.84;5043232;28;20044;-59
2021/10/30 05:53:59;;;;;;;9.45;5.75;;;;;;;9.48;76.42;99918.66;5053341;28;20048;-59
2021/10/30 05:56:25;;;;;;;8.18;5.88;;;;;;;9.53;76.66;99920.66;5035050;28;20398;-61
2021/10/30 05:58:51;;;;;;;8.73;5.88;;;;;;;9.55;76.50;99924.69;5052877;28;20057;-61
2021/10/30 06:01:17;;;;;;;9.38;5.55;;;;;;;9.59;76.76;99929.53;5059652;28;20044;-61
2021/10/30 06:03:42;;;;;;;10.68;5.90;;;;;;;9.62;76.62;99919.34;5072887;28;20044;-62
2021/10/30 06:06:09;;;;;;;8.88;5.80;;;;;;;9.62;76.46;99922.00;5072742;28;20032;-62
2021/10/30 06:08:34;;;;;;;7.28;5.60;;;;;;;9.65;76.98;99918.09;5073241;28;20405;-60
2021/10/30 06:11:01;;;;;;;10.85;6.15;;;;;;;9.68;76.18;99913.19;5054862;28;20046;-60
2021/10/30 06:13:27;;;;;;;9.55;6.13;;;;;;;9.69;76.80;99922.72;5054801;28;20052;-60
2021/10/30 06:15:53;;;;;;;8.80;5.80;;;;;;;9.73;76.29;99923.09;5054498;28;20070;-61
2021/10/30 06:18:19;;;;;;;14.77;6.80;;;;;;;9.78;76.54;99916.13;5072504;28;20115;-61
2021/10/30 06:20:45;;;;;;;13.98;6.00;;;;;;;9.78;76.53;99918.75;5071895;28;20190;-62
2021/10/30 06:23:13;;;;;;;9.15;6.43;;;;;;;9.81;76.79;99924.66;5072848;28;20059;-60
2021/10/30 06:25:41;;;;;;;9.27;6.13;;;;;;;9.87;76.26;99921.13;5054438;28;20464;-59
2021/10/30 06:28:07;;;;;;;9.25;6.38;;;;;;;9.92;75.95;99923.94;5059859;28;20101;-61
2021/10/30 06:30:34;;;;;;;10.68;6.28;;;;;;;9.96;75.58;99925.09;5051587;28;20045;-60
2021/10/30 06:32:59;;;;;;;8.90;5.72;;;;;;;9.99;75.93;99925.47;5034370;28;20041;-62
2021/10/30 06:35:25;;;;;;;8.20;5.95;;;;;;;10.05;75.64;99917.69;5052332;28;20040;-60
2021/10/30 06:37:51;;;;;;;12.05;6.28;;;;;;;10.11;75.70;99927.38;5067013;28;20115;-60
2021/10/30 06:40:17;;;;;;;14.73;6.70;;;;;;;10.18;75.53;99928.94;5071836;28;20048;-61
2021/10/30 06:42:43;;;;;;;8.68;5.95;;;;;;;10.28;75.39;99931.09;5072128;28;20033;-60
2021/10/30 06:45:10;;;;;;;11.35;6.82;;;;;;;10.39;74.89;99934.84;5070857;28;20047;-59
2021/10/30 06:47:36;;;;;;;8.23;5.72;;;;;;;10.49;74.77;99926.38;5072075;28;20469;-61
2021/10/30 06:50:04;;;;;;;10.68;5.93;;;;;;;10.60;73.86;99928.28;5071862;28;20048;-60
2021/10/30 06:52:36;;;;;;;10.27;5.97;;;;;;;10.63;73.53;99936.56;5072008;28;20036;-60
2021/10/30 06:55:08;;;;;;;9.07;6.35;;;;;;;10.78;73.65;99936.19;5071936;28;20040;-60
2021/10/30 06:57:34;;;;;;;10.15;6.40;;;;;;;10.90;72.81;99941.53;5062408;28;20041;-60
2021/10/30 07:00:02;;;;;;;11.60;7.22;;;;;;;11.08;72.71;99938.78;5052013;28;20047;-62
2021/10/30 07:02:28;;;;;;;10.07;6.45;;;;;;;11.22;72.05;99935.97;5051589;28;20462;-61
2021/10/30 07:04:55;;;;;;;10.60;6.80;;;;;;;11.24;71.73;99931.25;5051609;28;20136;-61
2021/10/30 07:07:21;;;;;;;10.38;6.68;;;;;;;11.35;71.24;99935.72;5019774;28;20041;-58
2021/10/30 07:09:47;;;;;;;11.45;6.65;;;;;;;11.50;70.91;99937.94;5013914;28;20045;-59
2021/10/30 07:12:13;;;;;;;11.98;6.82;;;;;;;11.54;70.82;99941.78;5045386;28;20037;-59
2021/10/30 07:14:39;;;;;;;13.32;6.70;;;;;;;11.63;70.56;99944.91;5052302;28;20044;-58
2021/10/30 07:17:05;;;;;;;8.93;5.93;;;;;;;11.74;70.06;99946.75;5051222;28;20133;-59
2021/10/30 07:19:31;;;;;;;11.88;7.28;;;;;;;11.78;70.05;99947.91;5067266;28;20052;-58
2021/10/30 07:21:56;;;;;;;10.85;7.10;;;;;;;11.70;69.93;99949.03;5058683;28;20505;-58
2021/10/30 07:24:22;;;;;;;11.95;7.28;;;;;;;11.71;70.23;99953.34;5071582;28;20127;-59
2021/10/30 07:26:48;;;;;;;12.30;6.47;;;;;;;11.77;69.82;99952.41;5071366;28;20063;-59
2021/10/30 07:29:14;;;;;;;11.70;7.10;;;;;;;11.79;69.79;99957.47;5071365;28;20498;-59
2021/10/30 07:31:41;;;;;;;9.07;6.55;;;;;;;11.79;69.52;99965.44;5071148;28;20452;-58
2021/10/30 07:34:07;;;;;;;16.17;7.35;;;;;;;11.87;69.22;99951.03;5071161;28;20055;-60
2021/10/30 07:36:33;;;;;;;9.82;7.25;;;;;;;11.87;68.99;99965.13;5070965;28;20036;-65
2021/10/30 07:38:59;;;;;;;11.90;8.30;;;;;;;11.83;69.48;99959.44;5071053;28;20097;-61
2021/10/30 07:41:25;;;;;;;11.73;7.63;;;;;;;11.82;69.34;99962.31;5052856;28;20040;-61
2021/10/30 07:43:54;;;;;;;11.73;7.20;;;;;;;11.76;68.97;99948.09;5031622;28;20069;-61
2021/10/30 07:46:22;;;;;;;12.02;8.13;;;;;;;11.91;68.79;99970.78;5055958;28;20028;-62
2021/10/30 07:48:48;;;;;;;11.13;7.75;;;;;;;12.02;68.82;99964.66;5052533;28;20091;-63
2021/10/30 07:51:14;;;;;;;11.00;7.78;;;;;;;12.09;68.42;99962.69;5050914;28;20255;-63
2021/10/30 07:53:40;;;;;;;16.48;7.85;;;;;;;12.18;68.21;99963.16;5050957;28;20071;-64
2021/10/30 07:56:06;;;;;;;11.48;8.02;;;;;;;12.25;67.91;99967.28;5051000;28;20451;-62
2021/10/30 07:58:32;;;;;;;10.32;7.70;;;;;;;12.33;67.70;99967.97;5052317;28;20048;-62
2021/10/30 08:00:58;;;;;;;12.10;7.75;;;;;;;12.32;67.32;99972.47;5065109;28;20171;-67
2021/10/30 08:03:24;;;;;;;12.77;8.50;;;;;;;12.28;67.54;99973.97;5050811;28;20385;-64
2021/10/30 08:05:49;;;;;;;12.90;8.35;;;;;;;12.33;67.58;99979.41;5050682;28;20060;-63
2021/10/30 08:08:15;;;;;;;12.75;7.75;;;;;;;12.48;67.00;99976.25;5068359;28;20048;-62
2021/10/30 08:10:41;;;;;;;12.65;9.00;;;;;;;12.54;66.46;99977.97;5070164;28;20053;-64
2021/10/30 08:13:11;;;;;;;13.68;8.45;;;;;;;12.55;66.25;99982.25;5070268;28;20052;-62
2021/10/30 08:15:38;;;;;;;12.65;8.38;;;;;;;12.54;66.67;99980.63;5069551;28;20123;-62
2021/10/30 08:18:03;;;;;;;13.82;9.18;;;;;;;12.44;66.81;99983.06;5070353;28;20040;-61
2021/10/30 08:20:31;;;;;;;12.35;8.70;;;;;;;12.47;67.02;99972.78;5070560;28;20047;-62
2021/10/30 08:22:57;;;;;;;12.73;8.85;;;;;;;12.65;66.88;99981.66;5070772;28;20084;-64
2021/10/30 08:25:23;;;;;;;17.05;9.43;;;;;;;12.72;66.22;99988.44;5073994;28;20067;-61
2021/10/30 08:27:49;;;;;;;13.35;9.05;;;;;;;12.64;66.64;99990.66;5074068;28;20036;-62
2021/10/30 08:30:15;;;;;;;13.85;8.80;;;;;;;12.68;66.39;99986.50;5056022;28;20044;-63
2021/10/30 08:32:41;;;;;;;13.50;9.07;;;;;;;12.78;65.60;99984.03;5074207;28;20409;-65
2021/10/30 08:35:07;;;;;;;14.00;8.52;;;;;;;12.71;65.91;99986.03;5055848;28;20079;-60
2021/10/30 08:37:33;;;;;;;11.55;8.75;;;;;;;12.74;66.17;99990.88;5071134;28;20425;-63
2021/10/30 08:39:59;;;;;;;11.85;8.75;;;;;;;12.72;65.80;99983.13;5056650;28;20127;-69
2021/10/30 08:42:25;;;;;;;13.55;8.80;;;;;;;12.76;66.24;99988.75;5073483;28;20055;-66
2021/10/30 08:44:54;;;;;;;14.13;8.43;;;;;;;12.82;65.78;99981.69;5073871;28;20049;-66
2021/10/30 08:47:20;;;;;;;12.68;9.07;;;;;;;12.78;65.95;99986.69;5055374;28;20040;-63
2021/10/30 08:49:46;;;;;;;12.55;8.90;;;;;;;12.71;66.02;99980.72;5073894;28;20037;-61
2021/10/30 08:52:12;;;;;;;13.73;8.73;;;;;;;12.68;65.92;99984.66;5073499;28;20043;-61
2021/10/30 08:54:38;;;;;;;13.80;8.63;;;;;;;12.69;65.79;99983.59;5074187;28;20068;-60
2021/10/30 08:57:05;;;;;;;13.25;9.38;;;;;;;12.60;66.28;99984.22;5073521;28;20129;-59
2021/10/30 08:59:39;;;;;;;14.98;9.15;;;;;;;12.47;66.57;99985.25;5073851;28;20226;-61
2021/10/30 09:02:05;;;;;;;12.15;8.25;;;;;;;12.52;66.57;99985.38;5073727;28;20037;-61
2021/10/30 09:04:31;;;;;;;11.80;8.43;;;;;;;12.56;66.56;99983.88;5073989;28;20044;-62
2021/10/30 09:07:00;;;;;;;13.77;9.52;;;;;;;12.63;66.28;99987.19;5055727;28;20132;-60
2021/10/30 09:09:27;;;;;;;12.63;8.40;;;;;;;12.62;66.38;99982.94;5073606;28;20055;-62
2021/10/30 09:11:56;;;;;;;11.23;8.02;;;;;;;12.59;66.60;99987.88;5054909;28;20047;-61
2021/10/30 09:14:27;;;;;;;16.38;9.25;;;;;;;12.58;66.61;99971.13;5073718;28;20185;-60
2021/10/30 09:17:18;;;;;;;13.20;8.73;;;;;;;12.51;67.05;99973.13;5073662;28;20037;-62
2021/10/30 09:19:48;;;;;;;14.30;8.70;;;;;;;12.53;67.09;99976.38;5073732;28;20097;-60
2021/10/30 09:22:17;;;;;;;;;;;;;;;12.55;67.02;99982.25;5073431;28;20142;-61
2021/10/30 09:25:06;;;;;;;13.38;8.05;;;;;;;12.51;67.16;99970.47;5073122;28;19978;-60
2021/10/30 09:28:01;;;;;;;12.88;9.05;;;;;;;12.48;66.89;99973.59;5072908;28;20420;-60
2021/10/30 09:30:36;;;;;;;13.02;8.65;;;;;;;12.43;67.21;99974.28;5073121;28;20044;-61
2021/10/30 09:33:09;;;;;;;12.32;8.00;;;;;;;12.40;66.97;99964.13;5072870;28;20300;-61
2021/10/30 09:35:44;;;;;;;11.85;8.60;;;;;;;12.42;67.06;99967.38;5054560;28;20463;-60
2021/10/30 09:38:34;;;;;;;16.02;9.65;;;;;;;12.42;66.71;99966.56;5073438;28;20047;-60
2021/10/30 09:41:21;;;;;;;13.60;8.95;;;;;;;12.43;66.52;99970.84;5061736;28;20071;-61
2021/10/30 09:43:59;;;;;;;11.40;7.82;;;;;;;12.37;66.80;99966.47;5037055;28;20488;-59
2021/10/30 09:46:32;;;;;;;14.35;7.38;;;;;;;12.31;66.47;99962.88;5071935;28;20093;-61
2021/10/30 09:49:00;;;;;;;11.38;7.85;;;;;;;12.28;66.74;99966.00;5072985;28;20048;-60
2021/10/30 09:51:36;;;;;;;13.90;8.25;;;;;;;12.28;66.51;99966.00;5038021;28;20040;-62
2021/10/30 09:54:07;;;;;;;11.93;8.07;;;;;;;12.23;66.99;99965.91;5072692;28;20037;-63
2021/10/30 09:56:40;;;;;;;;;;;;;;;12.30;66.96;99965.78;5072469;28;20495;-63
2021/10/30 09:59:09;;;;;;;14.85;9.35;;;;;;;12.26;67.04;99965.44;5071559;28;19924;-67
2021/10/30 10:01:37;;;;;;;9.85;7.15;;;;;;;12.26;66.82;99957.44;5072277;28;20044;-64
2021/10/30 10:04:04;;;;;;;11.65;7.53;;;;;;;12.28;66.84;99958.03;5072209;28;20076;-68
2021/10/30 10:06:31;;;;;;;12.63;8.30;;;;;;;12.27;66.52;99962.56;5054412;28;20047;-67
2021/10/30 10:08:58;;;;;;;18.65;8.20;;;;;;;12.25;66.57;99959.31;5071913;28;20055;-64
2021/10/30 10:11:25;;;;;;;10.55;7.82;;;;;;;12.26;66.84;99968.91;5053286;28;20121;-63
2021/10/30 10:13:51;;;;;;;12.40;7.88;;;;;;;12.28;66.95;99953.53;5071221;28;20524;-64
2021/10/30 10:16:19;;;;;;;13.15;8.52;;;;;;;12.29;66.05;99962.31;5071731;28;20109;-64
2021/10/30 10:18:49;;;;;;;16.33;8.27;;;;;;;12.25;66.26;99966.47;5072241;28;20048;-63
2021/10/30 10:21:21;;;;;;;16.58;9.15;;;;;;;12.26;66.18;99968.09;5071597;28;20078;-64
2021/10/30 10:23:47;;;;;;;14.63;8.20;;;;;;;12.33;66.40;99962.66;5071921;28;20139;-65
2021/10/30 10:26:19;;;;;;;11.27;8.30;;;;;;;12.33;65.79;99962.66;5071281;28;20547;-64
2021/10/30 10:29:01;;;;;;;12.73;8.40;;;;;;;12.33;65.83;99974.09;5072083;28;20131;-61
2021/10/30 10:31:27;;;;;;;12.18;8.15;;;;;;;12.38;66.03;99970.72;5071879;28;20087;-63
2021/10/30 10:34:10;;;;;;;13.55;9.20;;;;;;;12.38;65.68;99963.56;5072131;28;20510;-66
2021/10/30 10:36:42;;;;;;;16.08;9.10;;;;;;;12.42;65.59;99971.88;5053942;28;20050;-62
2021/10/30 10:39:17;;;;;;;14.88;9.02;;;;;;;12.40;65.88;99958.81;5019508;28;20113;-64
2021/10/30 10:41:43;;;;;;;15.18;8.32;;;;;;;12.40;65.60;99963.31;5070999;28;20067;-65
2021/10/30 10:44:22;;;;;;;15.50;9.05;;;;;;;12.41;65.68;99960.44;5071922;28;20202;-65
2021/10/30 10:46:50;;;;;;;12.73;8.15;;;;;;;12.43;65.72;99966.31;5071197;28;20033;-63
2021/10/30 10:49:42;;;;;;;15.77;8.50;;;;;;;12.40;65.35;99958.81;5071748;28;20045;-63
2021/10/30 10:52:17;;;;;;;12.35;8.95;;;;;;;12.44;65.44;99959.97;5069946;28;20090;-63
2021/10/30 10:55:04;;;;;;;13.95;8.85;;;;;;;12.42;65.49;99955.94;5071477;28;20045;-65
2021/10/30 10:57:33;;;;;;;16.38;7.90;;;;;;;12.43;65.21;99953.03;5071325;28;20098;-64
2021/10/30 11:00:08;;;;;;;11.77;7.95;;;;;;;12.45;65.21;99958.13;5053730;28;20052;-64
2021/10/30 11:02:36;;;;;;;13.32;8.57;;;;;;;12.48;65.57;99947.81;5071289;28;20048;-64
2021/10/30 11:05:08;;;;;;;12.88;7.72;;;;;;;12.49;65.31;99951.28;5071641;28;20414;-65
2021/10/30 11:07:37;;;;;;;16.58;8.70;;;;;;;12.50;65.33;99948.41;5071384;28;20045;-68
2021/10/30 11:10:14;;;;;;;15.60;9.07;;;;;;;12.50;65.24;99945.72;5070974;28;20048;-65
2021/10/30 11:13:21;;;;;;;17.15;9.45;;;;;;;12.50;65.12;99943.06;5071005;28;20560;-66
2021/10/30 11:15:56;;;;;;;16.15;8.30;;;;;;;12.52;65.22;99940.16;5054010;28;20123;-65
2021/10/30 11:18:34;;;;;;;18.60;8.80;;;;;;;12.52;65.10;99936.69;5071428;28;20040;-65
2021/10/30 11:21:24;;;;;;;12.65;8.00;;;;;;;12.53;64.95;99941.81;5071563;28;20049;-64
2021/10/30 11:23:51;;;;;;;;;;;;;;;12.52;64.63;99937.50;5071674;28;20045;-65
2021/10/30 11:26:22;;;;;;;12.75;8.07;;;;;;;12.52;64.94;99942.03;5070263;28;20346;-64
2021/10/30 11:28:48;;;;;;;14.10;7.85;;;;;;;12.56;64.88;99943.16;5070922;28;20545;-65
2021/10/30 11:31:19;;;;;;;13.30;7.68;;;;;;;12.55;65.04;99945.00;5070610;28;20048;-64
2021/10/30 11:33:55;;;;;;;11.57;8.05;;;;;;;12.55;64.81;99938.88;5053495;28;20040;-68
2021/10/30 11:36:21;;;;;;;16.90;8.63;;;;;;;12.54;64.84;99932.78;5071074;28;20098;-68